Terminal Aerodrome Forecast
Issued by NWS

Home | Current Version | Previous Version | Text Only | Print | Product List | Glossary On
Versions: 1 2 3 4 5 6 7 8 9 10 11 12 13 14 15 16 17 18 19
303
FTUS41 KCAR 081917 AAC
TAFBHB
TAF AMD
KBHB 081917Z 0819/0918 03015G22KT P6SM -SN SCT025 OVC040
     FM082000 02015G25KT 2SM -SN BLSN OVC015
     FM082200 02020G30KT 3/4SM -SN BLSN OVC007
     FM090000 02018G26KT 1/2SM SN BLSN OVC007
     FM090300 36017G24KT 1SM -SN OVC010
     FM090900 35011KT 2SM -SN OVC010
     FM091400 02009KT P6SM OVC020
      AMD LTD TO CLD VIS AND WIND=

USA.gov is the U.S. government's official web portal to all federal, state and local government web resources and services.